sensor_id;sensor_type;location;lat;lon;timestamp;P1;durP1;ratioP1;P2;durP2;ratioP2
39196;SDS011;42889;51.112;13.772;2022-12-18T00:01:03;29.20;;;10.32;;
39196;SDS011;42889;51.112;13.772;2022-12-18T00:03:34;29.38;;;10.95;;
39196;SDS011;42889;51.112;13.772;2022-12-18T00:06:02;29.02;;;10.00;;
39196;SDS011;42889;51.112;13.772;2022-12-18T00:08:29;33.60;;;11.30;;
39196;SDS011;42889;51.112;13.772;2022-12-18T00:10:56;28.13;;;10.07;;
39196;SDS011;42889;51.112;13.772;2022-12-18T00:13:33;34.30;;;10.10;;
39196;SDS011;42889;51.112;13.772;2022-12-18T00:16:05;29.88;;;10.55;;
39196;SDS011;42889;51.112;13.772;2022-12-18T00:18:34;29.63;;;10.05;;
39196;SDS011;42889;51.112;13.772;2022-12-18T00:21:02;33.17;;;10.77;;
39196;SDS011;42889;51.112;13.772;2022-12-18T00:23:31;30.45;;;10.75;;
39196;SDS011;42889;51.112;13.772;2022-12-18T00:25:58;31.88;;;10.55;;
39196;SDS011;42889;51.112;13.772;2022-12-18T00:28:25;29.85;;;10.38;;
39196;SDS011;42889;51.112;13.772;2022-12-18T00:30:59;33.38;;;10.90;;
39196;SDS011;42889;51.112;13.772;2022-12-18T00:33:30;30.15;;;10.50;;
39196;SDS011;42889;51.112;13.772;2022-12-18T00:36:01;31.90;;;10.77;;
39196;SDS011;42889;51.112;13.772;2022-12-18T00:38:28;27.30;;;9.02;;
39196;SDS011;42889;51.112;13.772;2022-12-18T00:40:55;31.63;;;10.60;;
39196;SDS011;42889;51.112;13.772;2022-12-18T00:43:21;32.60;;;10.68;;
39196;SDS011;42889;51.112;13.772;2022-12-18T00:45:48;32.05;;;11.30;;
39196;SDS011;42889;51.112;13.772;2022-12-18T00:48:15;31.85;;;10.65;;
39196;SDS011;42889;51.112;13.772;2022-12-18T00:50:42;30.35;;;10.98;;
39196;SDS011;42889;51.112;13.772;2022-12-18T00:53:09;27.70;;;10.35;;
39196;SDS011;42889;51.112;13.772;2022-12-18T00:55:37;34.35;;;11.48;;
39196;SDS011;42889;51.112;13.772;2022-12-18T00:58:05;28.73;;;11.30;;
39196;SDS011;42889;51.112;13.772;2022-12-18T01:00:31;30.77;;;10.20;;
39196;SDS011;42889;51.112;13.772;2022-12-18T01:02:58;35.63;;;11.60;;
39196;SDS011;42889;51.112;13.772;2022-12-18T01:05:25;33.70;;;11.80;;
39196;SDS011;42889;51.112;13.772;2022-12-18T01:07:51;31.85;;;11.43;;
39196;SDS011;42889;51.112;13.772;2022-12-18T01:10:18;30.35;;;10.93;;
39196;SDS011;42889;51.112;13.772;2022-12-18T01:12:45;29.23;;;9.48;;
39196;SDS011;42889;51.112;13.772;2022-12-18T01:15:12;33.42;;;10.02;;
39196;SDS011;42889;51.112;13.772;2022-12-18T01:17:40;30.85;;;9.95;;
39196;SDS011;42889;51.112;13.772;2022-12-18T01:20:08;31.17;;;9.70;;
39196;SDS011;42889;51.112;13.772;2022-12-18T01:22:37;28.35;;;9.60;;
39196;SDS011;42889;51.112;13.772;2022-12-18T01:25:06;31.75;;;10.20;;
39196;SDS011;42889;51.112;13.772;2022-12-18T01:27:33;28.13;;;9.45;;
39196;SDS011;42889;51.112;13.772;2022-12-18T01:30:02;34.08;;;11.45;;
39196;SDS011;42889;51.112;13.772;2022-12-18T01:32:30;29.35;;;10.35;;
39196;SDS011;42889;51.112;13.772;2022-12-18T01:34:57;27.83;;;10.85;;
39196;SDS011;42889;51.112;13.772;2022-12-18T01:37:26;30.58;;;9.55;;
39196;SDS011;42889;51.112;13.772;2022-12-18T01:39:52;30.63;;;9.77;;
39196;SDS011;42889;51.112;13.772;2022-12-18T01:42:20;34.20;;;10.77;;
39196;SDS011;42889;51.112;13.772;2022-12-18T01:45:05;33.28;;;10.98;;
39196;SDS011;42889;51.112;13.772;2022-12-18T01:47:48;30.25;;;9.98;;
39196;SDS011;42889;51.112;13.772;2022-12-18T01:50:21;26.52;;;9.80;;
39196;SDS011;42889;51.112;13.772;2022-12-18T01:52:58;26.08;;;9.00;;
39196;SDS011;42889;51.112;13.772;2022-12-18T01:55:29;29.63;;;9.52;;
39196;SDS011;42889;51.112;13.772;2022-12-18T01:57:59;29.63;;;9.25;;
39196;SDS011;42889;51.112;13.772;2022-12-18T02:00:27;30.08;;;10.02;;
39196;SDS011;42889;51.112;13.772;2022-12-18T02:02:54;33.55;;;11.00;;
39196;SDS011;42889;51.112;13.772;2022-12-18T02:19:06;28.83;;;9.57;;
39196;SDS011;42889;51.112;13.772;2022-12-18T02:24:35;25.60;;;9.30;;
39196;SDS011;42889;51.112;13.772;2022-12-18T02:27:11;33.42;;;9.77;;
39196;SDS011;42889;51.112;13.772;2022-12-18T02:32:21;28.80;;;9.52;;
39196;SDS011;42889;51.112;13.772;2022-12-18T02:34:52;29.42;;;10.65;;
39196;SDS011;42889;51.112;13.772;2022-12-18T02:37:24;29.95;;;9.63;;
39196;SDS011;42889;51.112;13.772;2022-12-18T02:39:54;28.92;;;9.50;;
39196;SDS011;42889;51.112;13.772;2022-12-18T02:42:23;32.65;;;10.30;;
39196;SDS011;42889;51.112;13.772;2022-12-18T02:44:51;32.25;;;11.23;;
39196;SDS011;42889;51.112;13.772;2022-12-18T02:47:24;31.13;;;10.52;;
39196;SDS011;42889;51.112;13.772;2022-12-18T03:00:05;32.55;;;10.00;;
39196;SDS011;42889;51.112;13.772;2022-12-18T03:05:33;28.05;;;9.48;;
39196;SDS011;42889;51.112;13.772;2022-12-18T03:08:07;32.13;;;9.75;;
39196;SDS011;42889;51.112;13.772;2022-12-18T03:10:39;29.25;;;9.82;;
39196;SDS011;42889;51.112;13.772;2022-12-18T03:13:23;30.55;;;10.50;;
39196;SDS011;42889;51.112;13.772;2022-12-18T03:15:56;27.73;;;9.70;;
39196;SDS011;42889;51.112;13.772;2022-12-18T03:18:27;28.90;;;9.40;;
39196;SDS011;42889;51.112;13.772;2022-12-18T03:21:00;29.65;;;9.75;;
39196;SDS011;42889;51.112;13.772;2022-12-18T03:23:35;28.83;;;9.40;;
39196;SDS011;42889;51.112;13.772;2022-12-18T03:26:09;28.33;;;9.30;;
39196;SDS011;42889;51.112;13.772;2022-12-18T03:28:40;32.20;;;10.52;;
39196;SDS011;42889;51.112;13.772;2022-12-18T03:31:12;32.35;;;10.57;;
39196;SDS011;42889;51.112;13.772;2022-12-18T03:33:53;34.25;;;11.18;;
39196;SDS011;42889;51.112;13.772;2022-12-18T03:36:28;36.35;;;10.27;;
39196;SDS011;42889;51.112;13.772;2022-12-18T03:38:55;35.35;;;11.13;;
39196;SDS011;42889;51.112;13.772;2022-12-18T03:41:33;33.90;;;11.40;;
39196;SDS011;42889;51.112;13.772;2022-12-18T03:44:47;37.05;;;10.63;;
39196;SDS011;42889;51.112;13.772;2022-12-18T03:47:38;32.30;;;11.73;;
39196;SDS011;42889;51.112;13.772;2022-12-18T03:55:34;29.00;;;9.50;;
39196;SDS011;42889;51.112;13.772;2022-12-18T03:58:04;31.10;;;10.85;;
39196;SDS011;42889;51.112;13.772;2022-12-18T04:00:49;30.17;;;9.73;;
39196;SDS011;42889;51.112;13.772;2022-12-18T04:03:19;29.38;;;9.25;;
39196;SDS011;42889;51.112;13.772;2022-12-18T04:05:52;32.60;;;10.60;;
39196;SDS011;42889;51.112;13.772;2022-12-18T04:08:21;25.27;;;8.30;;
39196;SDS011;42889;51.112;13.772;2022-12-18T04:11:00;31.52;;;10.48;;
39196;SDS011;42889;51.112;13.772;2022-12-18T04:13:29;34.75;;;10.82;;
39196;SDS011;42889;51.112;13.772;2022-12-18T04:16:01;33.53;;;10.02;;
39196;SDS011;42889;51.112;13.772;2022-12-18T04:18:29;34.90;;;10.63;;
39196;SDS011;42889;51.112;13.772;2022-12-18T04:20:58;23.83;;;8.88;;
39196;SDS011;42889;51.112;13.772;2022-12-18T04:23:25;25.60;;;9.82;;
39196;SDS011;42889;51.112;13.772;2022-12-18T04:25:55;32.42;;;10.73;;
39196;SDS011;42889;51.112;13.772;2022-12-18T04:28:36;26.73;;;9.32;;
39196;SDS011;42889;51.112;13.772;2022-12-18T04:31:03;31.63;;;10.25;;
39196;SDS011;42889;51.112;13.772;2022-12-18T04:33:30;32.80;;;10.07;;
39196;SDS011;42889;51.112;13.772;2022-12-18T04:35:57;29.83;;;11.20;;
39196;SDS011;42889;51.112;13.772;2022-12-18T04:38:24;29.83;;;10.07;;
39196;SDS011;42889;51.112;13.772;2022-12-18T04:41:00;29.25;;;9.07;;
39196;SDS011;42889;51.112;13.772;2022-12-18T04:43:26;31.75;;;10.63;;
39196;SDS011;42889;51.112;13.772;2022-12-18T04:45:53;28.58;;;9.73;;
39196;SDS011;42889;51.112;13.772;2022-12-18T04:48:20;32.08;;;10.43;;
39196;SDS011;42889;51.112;13.772;2022-12-18T04:50:47;26.52;;;9.35;;
39196;SDS011;42889;51.112;13.772;2022-12-18T04:53:14;28.67;;;9.73;;
39196;SDS011;42889;51.112;13.772;2022-12-18T04:55:40;27.65;;;9.85;;
39196;SDS011;42889;51.112;13.772;2022-12-18T04:58:07;27.52;;;9.43;;
39196;SDS011;42889;51.112;13.772;2022-12-18T05:00:34;31.88;;;9.75;;
39196;SDS011;42889;51.112;13.772;2022-12-18T05:03:02;31.65;;;9.70;;
39196;SDS011;42889;51.112;13.772;2022-12-18T05:05:29;26.65;;;8.93;;
39196;SDS011;42889;51.112;13.772;2022-12-18T05:07:55;28.60;;;10.00;;
39196;SDS011;42889;51.112;13.772;2022-12-18T05:10:22;29.73;;;9.98;;
39196;SDS011;42889;51.112;13.772;2022-12-18T05:12:48;27.60;;;9.43;;
39196;SDS011;42889;51.112;13.772;2022-12-18T05:15:27;33.13;;;10.10;;
39196;SDS011;42889;51.112;13.772;2022-12-18T05:17:58;30.10;;;8.60;;
39196;SDS011;42889;51.112;13.772;2022-12-18T05:20:25;29.10;;;9.43;;
39196;SDS011;42889;51.112;13.772;2022-12-18T05:22:53;30.58;;;10.00;;
39196;SDS011;42889;51.112;13.772;2022-12-18T05:25:20;28.75;;;10.02;;
39196;SDS011;42889;51.112;13.772;2022-12-18T05:27:47;29.63;;;9.98;;
39196;SDS011;42889;51.112;13.772;2022-12-18T05:30:14;27.80;;;8.95;;
39196;SDS011;42889;51.112;13.772;2022-12-18T05:32:41;30.25;;;9.32;;
39196;SDS011;42889;51.112;13.772;2022-12-18T05:35:09;26.63;;;8.85;;
39196;SDS011;42889;51.112;13.772;2022-12-18T05:37:36;22.13;;;9.05;;
39196;SDS011;42889;51.112;13.772;2022-12-18T05:40:08;28.98;;;9.68;;
39196;SDS011;42889;51.112;13.772;2022-12-18T05:42:35;28.00;;;8.88;;
39196;SDS011;42889;51.112;13.772;2022-12-18T05:45:02;26.98;;;9.65;;
39196;SDS011;42889;51.112;13.772;2022-12-18T05:47:30;23.98;;;8.60;;
39196;SDS011;42889;51.112;13.772;2022-12-18T05:49:56;27.13;;;9.02;;
39196;SDS011;42889;51.112;13.772;2022-12-18T05:52:23;25.30;;;8.50;;
39196;SDS011;42889;51.112;13.772;2022-12-18T05:54:50;23.73;;;8.23;;
39196;SDS011;42889;51.112;13.772;2022-12-18T05:57:16;24.92;;;8.93;;
39196;SDS011;42889;51.112;13.772;2022-12-18T05:59:43;26.98;;;8.63;;
39196;SDS011;42889;51.112;13.772;2022-12-18T06:02:10;24.20;;;9.18;;
39196;SDS011;42889;51.112;13.772;2022-12-18T06:04:37;23.92;;;8.73;;
39196;SDS011;42889;51.112;13.772;2022-12-18T06:07:03;25.27;;;8.43;;
39196;SDS011;42889;51.112;13.772;2022-12-18T06:09:30;28.35;;;8.57;;
39196;SDS011;42889;51.112;13.772;2022-12-18T06:11:57;28.55;;;9.15;;
39196;SDS011;42889;51.112;13.772;2022-12-18T06:14:23;23.30;;;8.20;;
39196;SDS011;42889;51.112;13.772;2022-12-18T06:16:50;27.00;;;8.15;;
39196;SDS011;42889;51.112;13.772;2022-12-18T06:19:18;24.17;;;7.63;;
39196;SDS011;42889;51.112;13.772;2022-12-18T06:21:45;24.13;;;7.60;;
39196;SDS011;42889;51.112;13.772;2022-12-18T06:24:11;21.48;;;8.18;;
39196;SDS011;42889;51.112;13.772;2022-12-18T06:26:38;22.58;;;7.43;;
39196;SDS011;42889;51.112;13.772;2022-12-18T06:29:05;27.77;;;9.07;;
39196;SDS011;42889;51.112;13.772;2022-12-18T06:31:32;25.23;;;8.40;;
39196;SDS011;42889;51.112;13.772;2022-12-18T06:33:59;26.60;;;9.30;;
39196;SDS011;42889;51.112;13.772;2022-12-18T06:36:28;30.35;;;10.23;;
39196;SDS011;42889;51.112;13.772;2022-12-18T06:38:55;27.55;;;8.52;;
39196;SDS011;42889;51.112;13.772;2022-12-18T06:41:23;25.23;;;9.02;;
39196;SDS011;42889;51.112;13.772;2022-12-18T06:43:50;28.80;;;8.60;;
39196;SDS011;42889;51.112;13.772;2022-12-18T06:46:23;27.67;;;9.35;;
39196;SDS011;42889;51.112;13.772;2022-12-18T06:48:50;25.75;;;9.43;;
39196;SDS011;42889;51.112;13.772;2022-12-18T06:51:17;28.15;;;11.13;;
39196;SDS011;42889;51.112;13.772;2022-12-18T06:53:45;29.15;;;9.85;;
39196;SDS011;42889;51.112;13.772;2022-12-18T06:56:11;28.10;;;9.85;;
39196;SDS011;42889;51.112;13.772;2022-12-18T06:58:38;23.23;;;8.43;;
39196;SDS011;42889;51.112;13.772;2022-12-18T07:01:06;28.20;;;9.00;;
39196;SDS011;42889;51.112;13.772;2022-12-18T07:03:34;25.98;;;9.27;;
39196;SDS011;42889;51.112;13.772;2022-12-18T07:06:02;27.30;;;8.70;;
39196;SDS011;42889;51.112;13.772;2022-12-18T07:08:30;22.73;;;8.15;;
39196;SDS011;42889;51.112;13.772;2022-12-18T07:10:57;24.33;;;8.82;;
39196;SDS011;42889;51.112;13.772;2022-12-18T07:13:24;27.38;;;8.18;;
39196;SDS011;42889;51.112;13.772;2022-12-18T07:15:51;25.33;;;8.82;;
39196;SDS011;42889;51.112;13.772;2022-12-18T07:18:17;24.45;;;7.85;;
39196;SDS011;42889;51.112;13.772;2022-12-18T07:20:44;24.00;;;8.13;;
39196;SDS011;42889;51.112;13.772;2022-12-18T07:23:11;22.65;;;8.10;;
39196;SDS011;42889;51.112;13.772;2022-12-18T07:25:38;23.25;;;8.35;;
39196;SDS011;42889;51.112;13.772;2022-12-18T07:28:05;26.52;;;9.80;;
39196;SDS011;42889;51.112;13.772;2022-12-18T07:30:32;23.75;;;8.40;;
39196;SDS011;42889;51.112;13.772;2022-12-18T07:32:59;29.40;;;9.80;;
39196;SDS011;42889;51.112;13.772;2022-12-18T07:35:25;34.88;;;8.98;;
39196;SDS011;42889;51.112;13.772;2022-12-18T07:37:52;23.63;;;8.23;;
39196;SDS011;42889;51.112;13.772;2022-12-18T07:40:18;27.38;;;8.75;;
39196;SDS011;42889;51.112;13.772;2022-12-18T07:42:45;26.20;;;9.02;;
39196;SDS011;42889;51.112;13.772;2022-12-18T07:45:12;24.98;;;8.73;;
39196;SDS011;42889;51.112;13.772;2022-12-18T07:47:38;22.08;;;8.88;;
39196;SDS011;42889;51.112;13.772;2022-12-18T07:50:07;27.70;;;9.20;;
39196;SDS011;42889;51.112;13.772;2022-12-18T07:52:35;27.80;;;9.55;;
39196;SDS011;42889;51.112;13.772;2022-12-18T07:55:02;24.23;;;9.52;;
39196;SDS011;42889;51.112;13.772;2022-12-18T07:57:29;27.17;;;9.18;;
39196;SDS011;42889;51.112;13.772;2022-12-18T08:00:16;26.90;;;9.18;;
39196;SDS011;42889;51.112;13.772;2022-12-18T08:02:43;27.95;;;9.20;;
39196;SDS011;42889;51.112;13.772;2022-12-18T08:05:10;25.55;;;9.07;;
39196;SDS011;42889;51.112;13.772;2022-12-18T08:07:39;27.08;;;9.20;;
39196;SDS011;42889;51.112;13.772;2022-12-18T08:10:06;33.55;;;9.15;;
39196;SDS011;42889;51.112;13.772;2022-12-18T08:12:33;26.15;;;8.70;;
39196;SDS011;42889;51.112;13.772;2022-12-18T08:15:00;29.58;;;9.38;;
39196;SDS011;42889;51.112;13.772;2022-12-18T08:17:29;26.13;;;9.20;;
39196;SDS011;42889;51.112;13.772;2022-12-18T08:19:57;31.05;;;10.05;;
39196;SDS011;42889;51.112;13.772;2022-12-18T08:22:25;27.85;;;8.80;;
39196;SDS011;42889;51.112;13.772;2022-12-18T08:24:52;29.83;;;10.35;;
39196;SDS011;42889;51.112;13.772;2022-12-18T08:27:19;30.40;;;9.73;;
39196;SDS011;42889;51.112;13.772;2022-12-18T08:29:57;32.45;;;9.32;;
39196;SDS011;42889;51.112;13.772;2022-12-18T08:32:25;26.67;;;8.77;;
39196;SDS011;42889;51.112;13.772;2022-12-18T08:34:54;26.88;;;9.05;;
39196;SDS011;42889;51.112;13.772;2022-12-18T08:37:23;26.23;;;8.98;;
39196;SDS011;42889;51.112;13.772;2022-12-18T08:39:55;26.98;;;9.48;;
39196;SDS011;42889;51.112;13.772;2022-12-18T08:42:25;30.08;;;9.07;;
39196;SDS011;42889;51.112;13.772;2022-12-18T08:45:10;25.80;;;9.45;;
39196;SDS011;42889;51.112;13.772;2022-12-18T08:47:37;27.17;;;8.98;;
39196;SDS011;42889;51.112;13.772;2022-12-18T08:50:04;31.48;;;8.93;;
39196;SDS011;42889;51.112;13.772;2022-12-18T08:52:32;25.52;;;8.75;;
39196;SDS011;42889;51.112;13.772;2022-12-18T08:55:00;26.35;;;9.15;;
39196;SDS011;42889;51.112;13.772;2022-12-18T08:57:29;23.48;;;7.78;;
39196;SDS011;42889;51.112;13.772;2022-12-18T08:59:56;26.13;;;9.25;;
39196;SDS011;42889;51.112;13.772;2022-12-18T09:02:22;27.77;;;9.27;;
39196;SDS011;42889;51.112;13.772;2022-12-18T09:04:49;25.38;;;9.05;;
39196;SDS011;42889;51.112;13.772;2022-12-18T09:07:22;27.75;;;9.77;;
39196;SDS011;42889;51.112;13.772;2022-12-18T09:09:50;28.35;;;10.75;;
39196;SDS011;42889;51.112;13.772;2022-12-18T09:12:17;28.58;;;9.80;;
39196;SDS011;42889;51.112;13.772;2022-12-18T09:14:46;28.98;;;9.70;;
39196;SDS011;42889;51.112;13.772;2022-12-18T09:17:14;30.45;;;9.93;;
39196;SDS011;42889;51.112;13.772;2022-12-18T09:19:41;29.67;;;10.35;;
39196;SDS011;42889;51.112;13.772;2022-12-18T09:22:09;30.90;;;10.43;;
39196;SDS011;42889;51.112;13.772;2022-12-18T09:24:38;25.45;;;8.40;;
39196;SDS011;42889;51.112;13.772;2022-12-18T09:27:05;26.92;;;9.85;;
39196;SDS011;42889;51.112;13.772;2022-12-18T09:29:33;31.08;;;11.48;;
39196;SDS011;42889;51.112;13.772;2022-12-18T09:32:02;30.55;;;10.05;;
39196;SDS011;42889;51.112;13.772;2022-12-18T09:34:29;27.52;;;10.15;;
39196;SDS011;42889;51.112;13.772;2022-12-18T09:36:56;29.65;;;10.27;;
39196;SDS011;42889;51.112;13.772;2022-12-18T09:39:23;30.23;;;10.55;;
39196;SDS011;42889;51.112;13.772;2022-12-18T09:41:54;29.23;;;8.93;;
39196;SDS011;42889;51.112;13.772;2022-12-18T09:44:33;34.05;;;10.63;;
39196;SDS011;42889;51.112;13.772;2022-12-18T09:47:15;29.02;;;10.38;;
39196;SDS011;42889;51.112;13.772;2022-12-18T09:49:48;27.85;;;9.50;;
39196;SDS011;42889;51.112;13.772;2022-12-18T09:52:30;27.52;;;10.18;;
39196;SDS011;42889;51.112;13.772;2022-12-18T09:57:39;26.38;;;8.85;;
39196;SDS011;42889;51.112;13.772;2022-12-18T10:00:19;22.90;;;8.73;;
39196;SDS011;42889;51.112;13.772;2022-12-18T10:02:53;27.77;;;9.48;;
39196;SDS011;42889;51.112;13.772;2022-12-18T10:08:05;20.25;;;8.02;;
39196;SDS011;42889;51.112;13.772;2022-12-18T10:13:35;21.02;;;7.78;;
39196;SDS011;42889;51.112;13.772;2022-12-18T10:16:16;21.00;;;8.45;;
39196;SDS011;42889;51.112;13.772;2022-12-18T10:21:49;24.35;;;8.35;;
39196;SDS011;42889;51.112;13.772;2022-12-18T10:27:15;19.83;;;7.60;;
39196;SDS011;42889;51.112;13.772;2022-12-18T10:29:48;24.02;;;7.68;;
39196;SDS011;42889;51.112;13.772;2022-12-18T10:32:22;26.00;;;8.38;;
39196;SDS011;42889;51.112;13.772;2022-12-18T10:34:52;25.85;;;7.88;;
39196;SDS011;42889;51.112;13.772;2022-12-18T10:37:26;22.10;;;7.75;;
39196;SDS011;42889;51.112;13.772;2022-12-18T10:40:06;24.20;;;8.40;;
39196;SDS011;42889;51.112;13.772;2022-12-18T10:42:33;22.90;;;8.32;;
39196;SDS011;42889;51.112;13.772;2022-12-18T10:45:21;22.05;;;8.27;;
39196;SDS011;42889;51.112;13.772;2022-12-18T10:47:48;24.25;;;8.32;;
39196;SDS011;42889;51.112;13.772;2022-12-18T10:50:19;21.08;;;7.30;;
39196;SDS011;42889;51.112;13.772;2022-12-18T10:53:18;19.80;;;7.45;;
39196;SDS011;42889;51.112;13.772;2022-12-18T10:55:47;23.50;;;9.02;;
39196;SDS011;42889;51.112;13.772;2022-12-18T11:06:10;18.38;;;6.82;;
39196;SDS011;42889;51.112;13.772;2022-12-18T11:08:42;23.75;;;8.32;;
39196;SDS011;42889;51.112;13.772;2022-12-18T11:11:20;21.17;;;8.00;;
39196;SDS011;42889;51.112;13.772;2022-12-18T11:14:11;22.65;;;8.00;;
39196;SDS011;42889;51.112;13.772;2022-12-18T11:16:47;21.08;;;7.80;;
39196;SDS011;42889;51.112;13.772;2022-12-18T11:19:37;21.02;;;7.72;;
39196;SDS011;42889;51.112;13.772;2022-12-18T11:22:20;23.73;;;9.88;;
39196;SDS011;42889;51.112;13.772;2022-12-18T11:24:55;24.40;;;8.20;;
39196;SDS011;42889;51.112;13.772;2022-12-18T11:28:01;20.83;;;7.60;;
39196;SDS011;42889;51.112;13.772;2022-12-18T11:30:35;25.85;;;9.00;;
39196;SDS011;42889;51.112;13.772;2022-12-18T11:33:04;26.27;;;8.23;;
39196;SDS011;42889;51.112;13.772;2022-12-18T11:35:36;20.48;;;7.90;;
39196;SDS011;42889;51.112;13.772;2022-12-18T11:38:06;24.42;;;8.77;;
39196;SDS011;42889;51.112;13.772;2022-12-18T11:40:53;22.25;;;8.02;;
39196;SDS011;42889;51.112;13.772;2022-12-18T11:43:27;23.95;;;8.45;;
39196;SDS011;42889;51.112;13.772;2022-12-18T11:46:05;26.15;;;8.68;;
39196;SDS011;42889;51.112;13.772;2022-12-18T11:48:45;22.40;;;8.05;;
39196;SDS011;42889;51.112;13.772;2022-12-18T11:54:53;22.25;;;7.45;;
39196;SDS011;42889;51.112;13.772;2022-12-18T11:57:47;21.27;;;6.72;;
39196;SDS011;42889;51.112;13.772;2022-12-18T12:00:22;28.08;;;8.45;;
39196;SDS011;42889;51.112;13.772;2022-12-18T12:03:06;28.63;;;9.10;;
39196;SDS011;42889;51.112;13.772;2022-12-18T12:08:20;24.58;;;7.68;;
39196;SDS011;42889;51.112;13.772;2022-12-18T12:11:02;23.52;;;7.90;;
39196;SDS011;42889;51.112;13.772;2022-12-18T12:24:44;25.17;;;8.13;;
39196;SDS011;42889;51.112;13.772;2022-12-18T12:27:30;25.05;;;9.25;;
39196;SDS011;42889;51.112;13.772;2022-12-18T12:40:30;19.35;;;7.28;;
39196;SDS011;42889;51.112;13.772;2022-12-18T12:43:22;26.88;;;8.23;;
39196;SDS011;42889;51.112;13.772;2022-12-18T12:45:55;22.20;;;7.47;;
39196;SDS011;42889;51.112;13.772;2022-12-18T12:51:01;25.85;;;8.85;;
39196;SDS011;42889;51.112;13.772;2022-12-18T12:53:36;26.38;;;8.80;;
39196;SDS011;42889;51.112;13.772;2022-12-18T12:56:06;28.02;;;9.00;;
39196;SDS011;42889;51.112;13.772;2022-12-18T13:07:24;20.48;;;6.82;;
39196;SDS011;42889;51.112;13.772;2022-12-18T13:12:56;22.27;;;7.78;;
39196;SDS011;42889;51.112;13.772;2022-12-18T13:15:45;23.42;;;7.97;;
39196;SDS011;42889;51.112;13.772;2022-12-18T13:18:22;25.30;;;8.52;;
39196;SDS011;42889;51.112;13.772;2022-12-18T13:21:15;21.98;;;7.00;;
39196;SDS011;42889;51.112;13.772;2022-12-18T13:23:45;21.85;;;7.97;;
39196;SDS011;42889;51.112;13.772;2022-12-18T13:28:54;21.88;;;7.53;;
39196;SDS011;42889;51.112;13.772;2022-12-18T13:39:59;23.33;;;7.28;;
39196;SDS011;42889;51.112;13.772;2022-12-18T13:42:31;23.48;;;7.45;;
39196;SDS011;42889;51.112;13.772;2022-12-18T13:45:38;25.58;;;7.43;;
39196;SDS011;42889;51.112;13.772;2022-12-18T13:48:18;22.10;;;7.80;;
39196;SDS011;42889;51.112;13.772;2022-12-18T13:50:51;21.38;;;7.65;;
39196;SDS011;42889;51.112;13.772;2022-12-18T13:53:22;22.73;;;7.40;;
39196;SDS011;42889;51.112;13.772;2022-12-18T13:56:17;21.17;;;6.72;;
39196;SDS011;42889;51.112;13.772;2022-12-18T13:58:46;18.43;;;6.27;;
39196;SDS011;42889;51.112;13.772;2022-12-18T14:01:29;22.00;;;7.60;;
39196;SDS011;42889;51.112;13.772;2022-12-18T14:04:08;17.98;;;6.53;;
39196;SDS011;42889;51.112;13.772;2022-12-18T14:06:39;21.13;;;6.40;;
39196;SDS011;42889;51.112;13.772;2022-12-18T14:09:06;21.08;;;7.70;;
39196;SDS011;42889;51.112;13.772;2022-12-18T14:11:38;19.77;;;6.75;;
39196;SDS011;42889;51.112;13.772;2022-12-18T14:14:06;24.65;;;7.95;;
39196;SDS011;42889;51.112;13.772;2022-12-18T14:16:33;21.98;;;7.75;;
39196;SDS011;42889;51.112;13.772;2022-12-18T14:19:01;19.75;;;7.20;;
39196;SDS011;42889;51.112;13.772;2022-12-18T14:21:39;22.17;;;7.18;;
39196;SDS011;42889;51.112;13.772;2022-12-18T14:24:20;17.55;;;6.38;;
39196;SDS011;42889;51.112;13.772;2022-12-18T14:26:48;19.95;;;7.10;;
39196;SDS011;42889;51.112;13.772;2022-12-18T14:29:29;16.70;;;5.57;;
39196;SDS011;42889;51.112;13.772;2022-12-18T14:34:40;17.60;;;6.22;;
39196;SDS011;42889;51.112;13.772;2022-12-18T14:37:09;16.55;;;5.75;;
39196;SDS011;42889;51.112;13.772;2022-12-18T14:39:37;17.48;;;5.88;;
39196;SDS011;42889;51.112;13.772;2022-12-18T14:42:05;17.67;;;6.55;;
39196;SDS011;42889;51.112;13.772;2022-12-18T14:44:32;20.70;;;6.95;;
39196;SDS011;42889;51.112;13.772;2022-12-18T14:47:16;18.48;;;6.78;;
39196;SDS011;42889;51.112;13.772;2022-12-18T14:49:43;20.88;;;7.30;;
39196;SDS011;42889;51.112;13.772;2022-12-18T14:52:44;19.25;;;7.20;;
39196;SDS011;42889;51.112;13.772;2022-12-18T14:55:03;18.65;;;6.25;;
39196;SDS011;42889;51.112;13.772;2022-12-18T14:57:33;20.27;;;6.97;;
39196;SDS011;42889;51.112;13.772;2022-12-18T15:00:07;19.38;;;6.93;;
39196;SDS011;42889;51.112;13.772;2022-12-18T15:02:46;16.48;;;5.70;;
39196;SDS011;42889;51.112;13.772;2022-12-18T15:05:24;19.40;;;7.25;;
39196;SDS011;42889;51.112;13.772;2022-12-18T15:07:54;20.83;;;6.25;;
39196;SDS011;42889;51.112;13.772;2022-12-18T15:10:29;23.50;;;7.15;;
39196;SDS011;42889;51.112;13.772;2022-12-18T15:18:03;23.58;;;8.35;;
39196;SDS011;42889;51.112;13.772;2022-12-18T15:20:30;23.75;;;7.93;;
39196;SDS011;42889;51.112;13.772;2022-12-18T15:22:59;23.27;;;7.35;;
39196;SDS011;42889;51.112;13.772;2022-12-18T15:25:27;19.83;;;6.15;;
39196;SDS011;42889;51.112;13.772;2022-12-18T15:28:03;20.50;;;7.28;;
39196;SDS011;42889;51.112;13.772;2022-12-18T15:30:57;21.02;;;7.15;;
39196;SDS011;42889;51.112;13.772;2022-12-18T15:33:27;24.85;;;6.95;;
39196;SDS011;42889;51.112;13.772;2022-12-18T15:35:58;24.02;;;7.53;;
39196;SDS011;42889;51.112;13.772;2022-12-18T15:38:28;19.40;;;7.25;;
39196;SDS011;42889;51.112;13.772;2022-12-18T15:40:55;23.52;;;7.50;;
39196;SDS011;42889;51.112;13.772;2022-12-18T15:43:22;23.67;;;6.97;;
39196;SDS011;42889;51.112;13.772;2022-12-18T15:46:13;24.77;;;8.00;;
39196;SDS011;42889;51.112;13.772;2022-12-18T15:48:43;22.00;;;6.95;;
39196;SDS011;42889;51.112;13.772;2022-12-18T15:51:13;17.88;;;5.93;;
39196;SDS011;42889;51.112;13.772;2022-12-18T15:53:42;21.35;;;6.95;;
39196;SDS011;42889;51.112;13.772;2022-12-18T15:56:10;21.38;;;7.75;;
39196;SDS011;42889;51.112;13.772;2022-12-18T15:58:57;22.40;;;7.60;;
39196;SDS011;42889;51.112;13.772;2022-12-18T16:01:24;20.58;;;7.90;;
39196;SDS011;42889;51.112;13.772;2022-12-18T16:03:52;16.90;;;6.80;;
39196;SDS011;42889;51.112;13.772;2022-12-18T16:06:20;22.83;;;6.53;;
39196;SDS011;42889;51.112;13.772;2022-12-18T16:08:48;20.45;;;7.22;;
39196;SDS011;42889;51.112;13.772;2022-12-18T16:11:22;21.58;;;7.20;;
39196;SDS011;42889;51.112;13.772;2022-12-18T16:14:30;21.20;;;7.05;;
39196;SDS011;42889;51.112;13.772;2022-12-18T16:17:01;22.13;;;8.07;;
39196;SDS011;42889;51.112;13.772;2022-12-18T16:19:29;26.38;;;8.50;;
39196;SDS011;42889;51.112;13.772;2022-12-18T16:21:56;22.25;;;6.63;;
39196;SDS011;42889;51.112;13.772;2022-12-18T16:24:25;21.27;;;7.53;;
39196;SDS011;42889;51.112;13.772;2022-12-18T16:26:55;22.17;;;7.65;;
39196;SDS011;42889;51.112;13.772;2022-12-18T16:29:23;22.48;;;7.82;;
39196;SDS011;42889;51.112;13.772;2022-12-18T16:31:54;22.63;;;7.45;;
39196;SDS011;42889;51.112;13.772;2022-12-18T16:34:22;21.92;;;7.47;;
39196;SDS011;42889;51.112;13.772;2022-12-18T16:36:59;24.92;;;7.97;;
39196;SDS011;42889;51.112;13.772;2022-12-18T16:39:31;23.88;;;7.55;;
39196;SDS011;42889;51.112;13.772;2022-12-18T16:42:02;24.40;;;7.50;;
39196;SDS011;42889;51.112;13.772;2022-12-18T16:44:32;21.40;;;6.90;;